Time;durP1;ratioP1;P1;durP2;ratioP2;P2;SDS_P1;SDS_P2;PMS_P1;PMS_P2;Temp;Humidity;BMP_temperature;BMP_pressure;BME280_temperature;BME280_humidity;BME280_pressure;Samples;Min_cycle;Max_cycle;Signal;HPM_P1;HPM_P2
2024/01/10 00:01:55;;;;;;;21.62;5.45;;;;;;;-5.22;100.00;102053.87;5607620;31;34191;-68
2024/01/10 00:04:58;;;;;;;20.55;6.78;;;;;;;-5.32;100.00;102055.78;5607642;31;34009;-68
2024/01/10 00:08:02;;;;;;;12.40;6.57;;;;;;;-5.36;100.00;102055.00;5607718;31;34709;-68
2024/01/10 00:11:05;;;;;;;45.42;27.37;;;;;;;-5.36;100.00;102056.72;5607502;31;34191;-69
2024/01/10 00:14:09;;;;;;;26.58;7.57;;;;;;;-5.37;100.00;102055.88;5607208;31;34795;-68
2024/01/10 00:17:12;;;;;;;45.88;27.73;;;;;;;-5.39;100.00;102059.38;5607641;31;34726;-67
2024/01/10 00:20:15;;;;;;;13.30;6.37;;;;;;;-5.44;100.00;102056.87;5607132;31;34243;-67
2024/01/10 00:23:19;;;;;;;19.08;6.93;;;;;;;-5.48;100.00;102062.12;5607226;31;34278;-68
2024/01/10 00:26:22;;;;;;;13.90;7.12;;;;;;;-5.48;100.00;102060.37;5607111;31;34358;-68
2024/01/10 00:29:25;;;;;;;25.67;7.70;;;;;;;-5.47;100.00;102063.84;5609834;31;34094;-69
2024/01/10 00:32:28;;;;;;;46.83;28.25;;;;;;;-5.51;100.00;102057.84;5609471;31;34027;-68
2024/01/10 00:35:32;;;;;;;52.28;28.77;;;;;;;-5.40;100.00;102057.66;5609660;31;34029;-67
2024/01/10 00:38:37;;;;;;;15.23;6.28;;;;;;;-5.41;100.00;102061.13;5609625;31;34041;-67
2024/01/10 00:41:40;;;;;;;15.07;6.45;;;;;;;-5.33;100.00;102064.44;5609699;31;34009;-69
2024/01/10 00:44:43;;;;;;;23.10;7.43;;;;;;;-5.39;100.00;102067.13;5609661;31;34781;-68
2024/01/10 00:47:48;;;;;;;48.60;28.83;;;;;;;-5.47;100.00;102062.06;5609803;31;34106;-69
2024/01/10 00:50:51;;;;;;;13.77;6.07;;;;;;;-5.48;100.00;102065.56;5609588;31;34627;-68
2024/01/10 00:53:55;;;;;;;22.37;8.18;;;;;;;-5.48;100.00;102067.28;5610265;31;35053;-69
2024/01/10 00:56:58;;;;;;;19.37;9.07;;;;;;;-5.44;100.00;102059.44;5595927;31;35040;-69
2024/01/10 01:00:03;;;;;;;23.12;8.23;;;;;;;-5.45;100.00;102064.63;5608890;31;34276;-69
2024/01/10 01:03:06;;;;;;;48.72;28.35;;;;;;;-5.49;100.00;102073.31;5609686;31;34946;-70
2024/01/10 01:06:10;;;;;;;15.00;6.82;;;;;;;-5.55;100.00;102069.09;5609880;31;33748;-70
2024/01/10 01:09:15;;;;;;;15.88;6.47;;;;;;;-5.63;100.00;102072.69;5609401;31;34149;-70
2024/01/10 01:12:18;;;;;;;17.23;8.60;;;;;;;-5.66;100.00;102075.34;5609420;31;34325;-68
2024/01/10 01:15:21;;;;;;;44.55;26.42;;;;;;;-5.70;100.00;102066.75;5608697;31;34195;-70
2024/01/10 01:18:25;;;;;;;21.75;6.15;;;;;;;-5.68;100.00;102071.91;5609667;31;34259;-69
2024/01/10 01:21:28;;;;;;;14.95;5.50;;;;;;;-5.69;100.00;102073.66;5609521;31;34783;-70
2024/01/10 01:24:32;;;;;;;14.25;6.85;;;;;;;-5.76;100.00;102069.47;5609328;31;34224;-69
2024/01/10 01:27:34;;;;;;;13.55;6.93;;;;;;;-5.68;100.00;102071.91;5609349;31;34249;-70
2024/01/10 01:30:39;;;;;;;16.33;6.18;;;;;;;-5.59;100.00;102070.03;5609717;31;34017;-70
2024/01/10 01:33:42;;;;;;;15.48;6.57;;;;;;;-5.54;100.00;102073.41;5609339;31;34004;-70
2024/01/10 01:36:45;;;;;;;40.20;24.67;;;;;;;-5.60;100.00;102059.72;5609344;31;34812;-68
2024/01/10 01:39:49;;;;;;;12.07;6.15;;;;;;;-5.66;100.00;102065.84;5609073;31;34230;-70
2024/01/10 01:42:53;;;;;;;11.95;5.72;;;;;;;-5.68;100.00;102066.75;5608424;31;34724;-69
2024/01/10 01:45:56;;;;;;;43.45;25.48;;;;;;;-5.71;100.00;102067.63;5609186;31;34827;-69
2024/01/10 01:49:00;;;;;;;14.82;7.28;;;;;;;-5.74;100.00;102070.28;5609136;31;34102;-69
2024/01/10 01:52:04;;;;;;;16.30;6.85;;;;;;;-5.82;100.00;102065.25;5608906;31;34386;-69
2024/01/10 01:55:08;;;;;;;17.40;5.53;;;;;;;-5.86;100.00;102061.00;5609001;31;34862;-69
2024/01/10 01:58:12;;;;;;;16.17;7.40;;;;;;;-5.87;100.00;102063.63;5608876;31;34591;-69
2024/01/10 02:01:15;;;;;;;16.77;7.62;;;;;;;-5.89;100.00;102060.19;5608918;31;34811;-69
2024/01/10 02:04:19;;;;;;;16.40;6.30;;;;;;;-5.92;100.00;102058.53;5608883;31;34785;-70
2024/01/10 02:07:23;;;;;;;18.92;7.62;;;;;;;-5.94;100.00;102052.50;5608901;31;34289;-69
2024/01/10 02:10:26;;;;;;;44.45;25.37;;;;;;;-5.94;100.00;102054.25;5608791;31;34133;-69
2024/01/10 02:13:30;;;;;;;18.67;6.72;;;;;;;-5.85;100.00;102056.66;5608768;31;34182;-69
2024/01/10 02:16:33;;;;;;;18.77;6.20;;;;;;;-5.88;100.00;102057.59;5608786;31;34081;-68
2024/01/10 02:19:36;;;;;;;19.85;6.80;;;;;;;-5.95;100.00;102052.53;5608548;31;34658;-69
2024/01/10 02:22:39;;;;;;;23.40;8.55;;;;;;;-5.46;100.00;102048.25;5609158;31;34591;-69
2024/01/10 02:25:42;;;;;;;20.80;6.43;;;;;;;-5.26;100.00;102053.97;5608697;31;34151;-68
2024/01/10 02:28:45;;;;;;;19.40;7.55;;;;;;;-5.57;100.00;102054.50;5608565;31;34900;-69
2024/01/10 02:31:48;;;;;;;17.42;7.22;;;;;;;-5.81;100.00;102050.59;5608653;31;34839;-69
2024/01/10 02:34:51;;;;;;;15.82;6.07;;;;;;;-5.96;100.00;102043.94;5608958;31;34840;-68
2024/01/10 02:37:54;;;;;;;12.05;5.78;;;;;;;-6.02;100.00;102048.34;5608182;31;34164;-69
2024/01/10 02:40:57;;;;;;;16.75;5.43;;;;;;;-6.07;100.00;102053.56;5608442;31;34231;-69
2024/01/10 02:44:00;;;;;;;21.98;7.22;;;;;;;-5.94;100.00;102046.50;5608565;31;34064;-69
2024/01/10 02:47:04;;;;;;;15.38;6.05;;;;;;;-6.03;100.00;102050.06;5594779;31;34049;-69
2024/01/10 02:50:08;;;;;;;43.00;22.17;;;;;;;-6.12;100.00;102050.22;5607776;31;34048;-68
2024/01/10 02:53:11;;;;;;;35.42;21.17;;;;;;;-6.02;100.00;102049.19;5608510;31;34016;-69
2024/01/10 02:56:14;;;;;;;18.70;5.35;;;;;;;-5.90;100.00;102046.41;5608549;31;34170;-70
2024/01/10 02:59:17;;;;;;;7.12;3.67;;;;;;;-6.03;100.00;102047.50;5608616;31;34905;-70
2024/01/10 03:02:20;;;;;;;19.35;6.55;;;;;;;-6.09;100.00;102052.72;5608433;31;34126;-69
2024/01/10 03:05:22;;;;;;;11.75;5.68;;;;;;;-5.85;100.00;102051.47;5608272;31;34749;-69
2024/01/10 03:08:25;;;;;;;10.32;5.32;;;;;;;-5.85;100.00;102048.91;5608471;31;34352;-70
2024/01/10 03:11:29;;;;;;;11.68;4.87;;;;;;;-5.80;100.00;102049.69;5608690;31;34179;-69
2024/01/10 03:14:34;;;;;;;3.70;3.40;;;;;;;-5.76;100.00;102056.53;5607420;31;34027;-69
2024/01/10 03:17:36;;;;;;;11.35;5.32;;;;;;;-5.42;100.00;102047.34;5607921;31;34100;-70
2024/01/10 03:20:39;;;;;;;8.88;4.25;;;;;;;-5.58;100.00;102051.06;5606239;31;34780;-69
2024/01/10 03:23:42;;;;;;;11.23;4.47;;;;;;;-5.63;100.00;102052.88;5606684;31;34756;-68
2024/01/10 03:26:45;;;;;;;12.02;5.00;;;;;;;-5.79;100.00;102057.44;5606584;31;34128;-68
2024/01/10 03:29:48;;;;;;;29.02;5.10;;;;;;;-5.95;100.00;102045.62;5606930;31;34254;-68
2024/01/10 03:32:51;;;;;;;11.60;4.82;;;;;;;-5.91;100.00;102049.06;5605944;31;34228;-68
2024/01/10 03:35:54;;;;;;;9.52;3.92;;;;;;;-6.00;100.00;102052.59;5606862;31;34014;-69
2024/01/10 03:38:57;;;;;;;7.35;4.37;;;;;;;-6.22;100.00;102043.47;5606929;31;34051;-68
2024/01/10 03:42:00;;;;;;;36.10;20.55;;;;;;;-6.34;100.00;102046.22;5606467;31;34203;-68
2024/01/10 03:45:04;;;;;;;11.63;4.87;;;;;;;-6.37;100.00;102044.53;5605754;31;33925;-69
2024/01/10 03:48:07;;;;;;;11.55;5.97;;;;;;;-6.32;100.00;102041.88;5606387;31;34064;-68
2024/01/10 03:51:10;;;;;;;12.00;5.12;;;;;;;-6.40;100.00;102047.16;5606515;31;33970;-69
2024/01/10 03:54:13;;;;;;;18.02;5.35;;;;;;;-6.37;100.00;102038.50;5606245;31;34080;-69
2024/01/10 03:57:16;;;;;;;17.62;6.22;;;;;;;-6.43;100.00;102043.72;5606177;31;35161;-70
2024/01/10 04:00:18;;;;;;;12.18;5.90;;;;;;;-6.50;100.00;102040.41;5606069;31;34904;-69
2024/01/10 04:03:21;;;;;;;12.57;6.00;;;;;;;-6.54;100.00;102041.31;5605019;31;34015;-69
2024/01/10 04:06:24;;;;;;;20.17;6.03;;;;;;;-6.61;100.00;102043.09;5606200;31;33965;-70
2024/01/10 04:09:27;;;;;;;12.75;6.12;;;;;;;-6.61;100.00;102042.25;5606128;31;34217;-69
2024/01/10 04:12:30;;;;;;;10.50;4.60;;;;;;;-6.64;100.00;102035.41;5606054;31;34366;-69
2024/01/10 04:15:34;;;;;;;15.88;5.78;;;;;;;-6.63;100.00;102041.41;5605162;31;34151;-68
2024/01/10 04:18:37;;;;;;;16.35;5.87;;;;;;;-6.68;100.00;102046.63;5601251;31;138389;-69
2024/01/10 04:21:40;;;;;;;8.68;5.05;;;;;;;-6.72;100.00;102051.84;5607190;31;34266;-69
2024/01/10 04:24:43;;;;;;;15.98;4.62;;;;;;;-6.70;100.00;102042.38;5607227;31;34016;-69
2024/01/10 04:27:46;;;;;;;11.48;5.68;;;;;;;-6.68;100.00;102048.38;5607088;31;34950;-68
2024/01/10 04:30:49;;;;;;;13.50;5.62;;;;;;;-6.68;100.00;102046.63;5606872;31;34476;-69
2024/01/10 04:33:52;;;;;;;10.02;5.05;;;;;;;-6.71;100.00;102049.25;5606130;31;33964;-70
2024/01/10 04:36:55;;;;;;;16.67;6.55;;;;;;;-6.53;100.00;102040.41;5607008;31;34226;-70
2024/01/10 04:39:58;;;;;;;12.40;5.18;;;;;;;-6.67;100.00;102048.34;5606938;31;34011;-69
2024/01/10 04:43:01;;;;;;;12.35;5.78;;;;;;;-6.73;100.00;102048.41;5606967;31;33919;-69
2024/01/10 04:46:04;;;;;;;10.05;5.07;;;;;;;-6.69;100.00;102063.00;5607103;31;34006;-70
2024/01/10 04:49:06;;;;;;;12.77;5.47;;;;;;;-6.73;100.00;102063.06;5606747;31;34076;-69
2024/01/10 04:52:10;;;;;;;13.00;5.20;;;;;;;-6.72;100.00;102059.59;5607047;31;34055;-70
2024/01/10 04:55:12;;;;;;;31.58;18.73;;;;;;;-6.72;100.00;102065.59;5606703;31;34858;-69
2024/01/10 04:58:15;;;;;;;8.93;2.42;;;;;;;-6.53;100.00;102073.16;5606977;31;35082;-71
2024/01/10 05:01:19;;;;;;;25.15;4.93;;;;;;;-6.35;100.00;102070.34;5606330;31;34363;-71
2024/01/10 05:04:22;;;;;;;29.33;17.58;;;;;;;-6.33;100.00;102069.41;5606401;31;34199;-70
2024/01/10 05:07:25;;;;;;;4.53;2.08;;;;;;;-6.34;100.00;102077.22;5606419;31;34014;-70
2024/01/10 05:10:27;;;;;;;29.37;17.90;;;;;;;-6.20;100.00;102067.56;5606331;31;34053;-70
2024/01/10 05:13:30;;;;;;;11.85;4.62;;;;;;;-6.24;100.00;102073.59;5607537;31;34281;-70
2024/01/10 05:16:34;;;;;;;7.37;4.25;;;;;;;-6.26;100.00;102077.94;5609441;31;34423;-71
2024/01/10 05:19:36;;;;;;;28.67;17.40;;;;;;;-6.34;100.00;102072.88;5609268;31;34105;-70
2024/01/10 05:22:40;;;;;;;5.40;3.28;;;;;;;-6.41;100.00;102080.72;5609028;31;35022;-71
2024/01/10 05:25:43;;;;;;;11.07;3.85;;;;;;;-6.54;100.00;102076.59;5609411;31;34134;-71
2024/01/10 05:28:46;;;;;;;13.48;4.93;;;;;;;-6.65;100.00;102075.00;5609290;31;34008;-71
2024/01/10 05:31:50;;;;;;;28.92;16.75;;;;;;;-6.76;100.00;102079.41;5609124;31;35706;-71
2024/01/10 05:34:54;;;;;;;7.65;3.00;;;;;;;-6.77;100.00;102079.41;5609661;31;34068;-72
2024/01/10 05:37:57;;;;;;;11.40;3.47;;;;;;;-6.75;100.00;102075.97;5609281;31;34206;-71
2024/01/10 05:41:01;;;;;;;7.90;3.37;;;;;;;-6.84;100.00;102076.06;5609630;31;35027;-71
2024/01/10 05:44:04;;;;;;;7.35;2.55;;;;;;;-6.89;100.00;102075.28;5609123;31;34720;-71
2024/01/10 05:47:08;;;;;;;10.00;4.50;;;;;;;-6.91;100.00;102076.12;5608661;31;33990;-71
2024/01/10 05:50:11;;;;;;;7.47;3.55;;;;;;;-6.95;100.00;102071.88;5608911;31;34283;-71
2024/01/10 05:53:16;;;;;;;15.38;4.50;;;;;;;-6.98;100.00;102069.34;5608927;31;34914;-70
2024/01/10 05:56:19;;;;;;;7.12;3.35;;;;;;;-6.93;100.00;102083.06;5608922;31;35003;-71
2024/01/10 05:59:23;;;;;;;10.82;4.35;;;;;;;-6.96;100.00;102067.59;5608029;31;34472;-71
2024/01/10 06:02:30;;;;;;;8.50;4.40;;;;;;;-6.99;100.00;102068.50;5607855;31;34367;-71
2024/01/10 06:05:33;;;;;;;9.55;4.53;;;;;;;-6.98;100.00;102066.78;5608757;31;34907;-72
2024/01/10 06:08:36;;;;;;;7.82;3.55;;;;;;;-7.02;100.00;102063.38;5608614;31;34393;-70
2024/01/10 06:11:42;;;;;;;31.65;17.70;;;;;;;-7.05;100.00;102071.97;5608405;31;34995;-71
2024/01/10 06:14:46;;;;;;;9.43;3.70;;;;;;;-6.98;100.00;102075.38;5608251;31;35257;-70
2024/01/10 06:17:49;;;;;;;11.95;3.47;;;;;;;-7.02;100.00;102079.69;5607603;31;35064;-71
2024/01/10 06:20:52;;;;;;;12.63;6.30;;;;;;;-6.97;100.00;102084.78;5608183;31;34232;-70
2024/01/10 06:23:56;;;;;;;13.95;4.35;;;;;;;-6.90;100.00;102077.84;5608309;31;34338;-71
2024/01/10 06:26:59;;;;;;;10.55;5.40;;;;;;;-6.88;100.00;102073.53;5607961;31;34596;-71
2024/01/10 06:30:03;;;;;;;15.40;4.90;;;;;;;-6.85;100.00;102079.53;5608485;31;34623;-71
2024/01/10 06:33:06;;;;;;;8.88;4.40;;;;;;;-6.80;100.00;102077.75;5608663;31;35166;-70
2024/01/10 06:36:10;;;;;;;9.15;4.68;;;;;;;-6.75;100.00;102078.56;5608057;31;35081;-71
2024/01/10 06:39:13;;;;;;;31.62;19.23;;;;;;;-6.82;100.00;102082.06;5608186;31;34769;-71
2024/01/10 06:42:17;;;;;;;14.85;4.32;;;;;;;-6.83;100.00;102080.38;5607768;31;34911;-72
2024/01/10 06:45:20;;;;;;;12.90;4.70;;;;;;;-6.84;100.00;102094.13;5607817;31;35372;-71
2024/01/10 06:48:25;;;;;;;11.85;5.43;;;;;;;-6.77;100.00;102098.34;5608004;31;34275;-72
2024/01/10 06:51:29;;;;;;;9.77;4.80;;;;;;;-6.63;100.00;102103.34;5608119;31;35283;-71
2024/01/10 06:54:32;;;;;;;34.92;19.35;;;;;;;-6.34;100.00;102097.87;5607863;31;35354;-71
2024/01/10 06:57:35;;;;;;;10.20;4.40;;;;;;;-6.36;100.00;102099.59;5607783;31;34974;-71
2024/01/10 07:00:39;;;;;;;4.55;2.95;;;;;;;-6.48;100.00;102102.31;5608263;31;35017;-71
2024/01/10 07:03:42;;;;;;;12.57;4.50;;;;;;;-6.46;100.00;102110.91;5608023;31;34294;-72
2024/01/10 07:06:45;;;;;;;11.43;4.68;;;;;;;-6.45;100.00;102112.63;5594464;31;34214;-72
2024/01/10 07:09:50;;;;;;;14.07;4.78;;;;;;;-6.48;100.00;102116.09;5608100;31;34755;-72
2024/01/10 07:12:58;;;;;;;10.05;4.28;;;;;;;-6.46;100.00;102110.91;5608274;31;33292;-71
2024/01/10 07:16:03;;;;;;;10.35;5.40;;;;;;;-6.40;100.00;102118.59;5607964;31;34654;-71
2024/01/10 07:19:06;;;;;;;9.77;4.15;;;;;;;-6.37;100.00;102110.78;5607831;31;34950;-70
2024/01/10 07:22:10;;;;;;;30.33;16.65;;;;;;;-6.34;100.00;102108.19;5607591;31;35021;-72
2024/01/10 07:25:16;;;;;;;9.15;4.20;;;;;;;-6.25;100.00;102105.50;5608180;31;34907;-71
2024/01/10 07:28:20;;;;;;;11.30;5.28;;;;;;;-6.24;100.00;102108.03;5607785;31;34936;-72
2024/01/10 07:31:23;;;;;;;9.05;5.25;;;;;;;-6.20;100.00;102101.13;5607958;31;34249;-72
2024/01/10 07:34:26;;;;;;;14.60;5.75;;;;;;;-6.11;100.00;102103.59;5607716;31;34432;-72
2024/01/10 07:37:29;;;;;;;39.28;17.15;;;;;;;-6.03;100.00;102100.87;5607217;31;34324;-71
2024/01/10 07:40:31;;;;;;;19.65;3.95;;;;;;;-5.93;100.00;102099.88;5607033;31;34285;-72
2024/01/10 07:43:34;;;;;;;7.50;4.43;;;;;;;-5.91;100.00;102103.31;5607974;31;35098;-70
2024/01/10 07:46:38;;;;;;;12.00;4.47;;;;;;;-5.82;100.00;102101.41;5607970;31;35011;-71
2024/01/10 07:49:41;;;;;;;32.60;15.95;;;;;;;-5.77;100.00;102119.44;5607794;31;34236;-71
2024/01/10 07:52:44;;;;;;;6.12;3.17;;;;;;;-5.69;100.00;102117.59;5607459;31;34714;-71
2024/01/10 07:55:47;;;;;;;10.52;5.60;;;;;;;-5.65;100.00;102113.22;5606726;31;34390;-70
2024/01/10 07:58:51;;;;;;;14.48;5.40;;;;;;;-5.59;100.00;102111.41;5607632;31;34975;-71
2024/01/10 08:01:56;;;;;;;41.85;17.98;;;;;;;-5.33;100.00;102118.75;5607061;31;34145;-70
2024/01/10 08:05:05;;;;;;;15.63;4.07;;;;;;;-5.14;100.00;102121.91;5607292;31;34320;-71
2024/01/10 08:08:09;;;;;;;13.43;4.45;;;;;;;-5.09;100.00;102125.25;5607360;31;34374;-71
2024/01/10 08:11:12;;;;;;;11.70;5.18;;;;;;;-5.02;100.00;102125.13;5607248;31;35319;-71
2024/01/10 08:14:16;;;;;;;33.38;17.37;;;;;;;-4.95;100.00;102131.06;5606348;31;34478;-71
2024/01/10 08:17:19;;;;;;;11.02;5.35;;;;;;;-4.87;100.00;102126.59;5607070;31;34494;-71
2024/01/10 08:20:22;;;;;;;11.30;5.30;;;;;;;-4.85;100.00;102128.28;5606409;31;34457;-71
2024/01/10 08:23:26;;;;;;;37.85;18.75;;;;;;;-4.73;100.00;102134.94;5606975;31;34579;-70
2024/01/10 08:26:29;;;;;;;38.28;20.65;;;;;;;-4.65;100.00;102140.84;5607294;31;34776;-71
2024/01/10 08:29:32;;;;;;;12.32;5.12;;;;;;;-4.48;100.00;102140.53;5606857;31;35762;-71
2024/01/10 08:32:36;;;;;;;37.08;21.40;;;;;;;-4.26;100.00;102135.78;5606884;31;35024;-70
2024/01/10 08:35:42;;;;;;;14.20;5.87;;;;;;;-4.09;100.00;102139.72;5606739;31;34662;-72
2024/01/10 08:38:45;;;;;;;39.42;21.55;;;;;;;-4.03;100.00;102143.94;5606729;31;35057;-71
2024/01/10 08:41:49;;;;;;;39.75;21.23;;;;;;;-4.01;100.00;102153.38;5607016;31;34237;-71
2024/01/10 08:44:53;;;;;;;43.95;22.50;;;;;;;-3.94;100.00;102151.50;5606298;31;34965;-71
2024/01/10 08:47:57;;;;;;;13.68;6.25;;;;;;;-3.87;100.00;102147.88;5606756;31;35330;-71
2024/01/10 08:51:00;;;;;;;41.10;23.33;;;;;;;-3.81;100.00;102145.16;5609503;31;34299;-71
2024/01/10 08:54:04;;;;;;;11.77;6.53;;;;;;;-3.78;100.00;102145.13;5609323;31;34323;-71
2024/01/10 08:57:08;;;;;;;43.85;22.40;;;;;;;-3.74;100.00;102138.13;5609455;31;34771;-71
2024/01/10 09:00:14;;;;;;;19.10;7.65;;;;;;;-3.68;100.00;102140.59;5609360;31;34776;-72
2024/01/10 09:03:17;;;;;;;48.17;25.98;;;;;;;-3.55;100.00;102142.00;5609331;31;34262;-71
2024/01/10 09:06:21;;;;;;;40.65;23.40;;;;;;;-3.48;100.00;102140.94;5595515;31;34354;-70
2024/01/10 09:09:24;;;;;;;9.77;4.65;;;;;;;-3.41;100.00;102139.94;5609299;31;34412;-70
2024/01/10 09:12:28;;;;;;;41.13;23.42;;;;;;;-3.29;100.00;102139.63;5608990;31;34447;-71
2024/01/10 09:15:31;;;;;;;10.10;4.82;;;;;;;-3.21;100.00;102132.53;5608931;31;34550;-71
2024/01/10 09:18:34;;;;;;;46.78;23.40;;;;;;;-3.02;100.00;102137.25;5608674;31;34280;-70
2024/01/10 09:21:37;;;;;;;37.60;22.90;;;;;;;-2.94;100.00;102124.91;5609402;31;34373;-71
2024/01/10 09:24:41;;;;;;;35.97;21.05;;;;;;;-2.96;100.00;102132.78;5608960;31;34482;-71
2024/01/10 09:27:46;;;;;;;14.73;6.57;;;;;;;-2.80;100.00;102128.00;5609125;31;34344;-71
2024/01/10 09:30:51;;;;;;;36.33;21.27;;;;;;;-2.77;100.00;102126.22;5609056;31;34478;-71
2024/01/10 09:33:55;;;;;;;41.15;22.40;;;;;;;-2.75;100.00;102129.59;5609094;31;34558;-71
2024/01/10 09:36:58;;;;;;;12.88;7.25;;;;;;;-2.77;100.00;102120.16;5608511;31;34424;-71
2024/01/10 09:40:01;;;;;;;42.05;23.35;;;;;;;-2.79;100.00;102115.00;5609206;31;35249;-71
2024/01/10 09:43:07;;;;;;;40.83;22.33;;;;;;;-2.70;100.00;102119.94;5609343;31;34487;-71
2024/01/10 09:46:11;;;;;;;15.38;6.57;;;;;;;-2.60;100.00;102109.28;5609124;31;34400;-71
2024/01/10 09:49:14;;;;;;;37.05;21.95;;;;;;;-2.41;100.00;102107.87;5608261;31;34370;-70
2024/01/10 09:52:25;;;;;;;39.65;20.08;;;;;;;-2.27;100.00;102109.19;5609196;31;34411;-70
2024/01/10 09:55:33;;;;;;;40.72;21.73;;;;;;;-2.24;100.00;102106.53;5608871;31;34571;-70
2024/01/10 09:58:39;;;;;;;43.42;21.15;;;;;;;-2.27;100.00;102100.53;5608947;31;35652;-70
2024/01/10 10:01:43;;;;;;;37.63;23.35;;;;;;;-2.22;100.00;102104.72;5608938;31;34923;-69
2024/01/10 10:05:09;;;;;;;37.28;21.37;;;;;;;-2.18;100.00;102089.91;5608868;31;34239;-69
2024/01/10 10:08:22;;;;;;;40.17;20.73;;;;;;;-2.11;100.00;102099.22;5608553;31;35525;-69
2024/01/10 10:11:26;;;;;;;34.67;20.25;;;;;;;-2.07;100.00;102100.81;5608906;31;34571;-69
2024/01/10 10:14:30;;;;;;;35.75;19.65;;;;;;;-1.80;100.00;102084.41;5608058;31;34402;-70
2024/01/10 10:17:34;;;;;;;36.85;19.30;;;;;;;-1.71;100.00;102085.00;5608973;31;34281;-70
2024/01/10 10:20:37;;;;;;;41.88;20.98;;;;;;;-1.73;100.00;102079.84;5607849;31;35305;-68
2024/01/10 10:23:57;;;;;;;40.53;19.87;;;;;;;-1.80;100.00;102075.75;5608241;31;35291;-68
2024/01/10 10:27:00;;;;;;;32.75;19.65;;;;;;;-1.69;100.00;102075.41;5596546;31;34959;-69
2024/01/10 10:30:04;;;;;;;41.15;20.77;;;;;;;-1.66;100.00;102077.91;5608380;31;35008;-67
2024/01/10 10:33:08;;;;;;;38.10;19.20;;;;;;;-1.60;98.05;102073.38;5608211;31;34478;-70
2024/01/10 10:36:14;;;;;;;36.50;19.05;;;;;;;-1.49;96.37;102067.78;5608842;31;34969;-68
2024/01/10 10:39:17;;;;;;;33.70;19.10;;;;;;;-1.31;91.99;102075.84;5608619;31;34947;-69
2024/01/10 10:42:22;;;;;;;32.60;18.17;;;;;;;-1.06;86.78;102062.84;5608979;31;34992;-68
2024/01/10 10:45:26;;;;;;;37.03;18.17;;;;;;;-0.90;81.56;102061.44;5608691;31;34927;-68
2024/01/10 10:48:36;;;;;;;34.22;19.10;;;;;;;-0.91;83.99;102048.44;5610902;31;34437;-68
2024/01/10 10:51:41;;;;;;;32.33;18.60;;;;;;;-0.92;84.72;102050.19;5595524;31;34234;-67
2024/01/10 10:54:55;;;;;;;29.75;16.52;;;;;;;-0.76;79.42;102044.44;5609393;31;34763;-69
2024/01/10 10:58:01;;;;;;;28.98;15.98;;;;;;;-0.64;75.84;102044.88;5609593;31;34475;-70
2024/01/10 11:01:14;;;;;;;33.22;16.42;;;;;;;-0.55;74.09;102047.13;5595956;31;34422;-68
2024/01/10 11:04:38;;;;;;;27.62;15.27;;;;;;;-0.53;73.63;102047.06;5608511;31;35030;-70
2024/01/10 11:07:45;;;;;;;35.25;15.57;;;;;;;-0.56;74.31;102040.22;5607829;31;34111;-68
2024/01/10 11:10:50;;;;;;;28.83;14.87;;;;;;;-0.59;70.71;102032.53;5607319;31;34582;-68
2024/01/10 11:14:15;;;;;;;29.77;14.85;;;;;;;-0.52;69.56;102033.97;5608374;31;33354;-68
2024/01/10 11:17:44;;;;;;;31.37;15.68;;;;;;;-0.47;69.85;102024.22;5609022;31;34529;-69
2024/01/10 11:21:30;;;;;;;27.25;15.57;;;;;;;-0.32;70.23;102014.13;5607324;31;34339;-69
2024/01/10 11:24:33;;;;;;;24.63;14.30;;;;;;;-0.27;69.24;102015.66;5608181;31;35364;-68
2024/01/10 11:27:37;;;;;;;28.38;14.15;;;;;;;-0.28;67.61;102015.69;5608030;31;34268;-68
2024/01/10 11:30:51;;;;;;;24.77;14.05;;;;;;;-0.13;67.28;102017.72;5608958;31;34281;-67
2024/01/10 11:33:59;;;;;;;29.42;14.77;;;;;;;-0.03;65.27;102011.25;5607548;31;34508;-68
2024/01/10 11:37:10;;;;;;;27.05;14.55;;;;;;;0.08;64.70;102010.81;5608296;31;34262;-69
2024/01/10 11:40:13;;;;;;;31.45;14.57;;;;;;;0.17;64.73;102007.84;5608313;31;34503;-68
2024/01/10 11:43:16;;;;;;;29.20;14.73;;;;;;;0.20;64.26;102002.47;5607954;31;35812;-68
2024/01/10 11:46:19;;;;;;;27.20;15.02;;;;;;;0.21;64.14;102009.41;5608155;31;33773;-68
2024/01/10 11:49:25;;;;;;;25.50;14.80;;;;;;;0.24;64.77;101997.06;5607241;31;34436;-69
2024/01/10 11:52:36;;;;;;;23.67;13.90;;;;;;;0.28;64.36;101993.47;5607459;31;34250;-68
2024/01/10 11:55:53;;;;;;;22.52;13.35;;;;;;;0.37;64.33;101992.22;5608417;31;33443;-68
2024/01/10 11:59:23;;;;;;;24.75;14.43;;;;;;;0.38;65.11;101993.94;5607013;31;34317;-69
2024/01/10 12:02:26;;;;;;;23.52;13.35;;;;;;;0.37;64.74;101979.16;5605458;31;34121;-68
2024/01/10 12:05:29;;;;;;;31.08;14.00;;;;;;;0.36;63.71;101978.31;5607543;31;34263;-68
2024/01/10 12:08:33;;;;;;;26.87;13.80;;;;;;;0.42;64.71;101969.37;5606992;31;35112;-69
2024/01/10 12:11:38;;;;;;;23.50;13.95;;;;;;;0.43;65.01;101969.34;5607513;31;34435;-68
2024/01/10 12:14:44;;;;;;;27.92;13.80;;;;;;;0.53;63.80;101974.16;5607364;31;34296;-69
2024/01/10 12:17:47;;;;;;;24.60;14.02;;;;;;;0.78;63.35;101967.81;5607494;31;34246;-69
2024/01/10 12:20:49;;;;;;;21.52;13.20;;;;;;;1.39;61.63;101964.22;5607387;31;34156;-69
2024/01/10 12:23:53;;;;;;;23.83;13.90;;;;;;;1.65;61.41;101969.06;5608389;31;34320;-69
2024/01/10 12:26:56;;;;;;;25.37;14.00;;;;;;;1.72;60.21;101967.88;5609885;31;34326;-69
2024/01/10 12:30:02;;;;;;;22.50;13.13;;;;;;;1.69;58.36;101968.03;5609925;31;35010;-70
2024/01/10 12:33:05;;;;;;;24.17;13.98;;;;;;;1.84;58.58;101971.69;5609308;31;34329;-71
2024/01/10 12:36:11;;;;;;;29.02;13.60;;;;;;;2.02;59.78;101973.44;5609157;31;35218;-71
2024/01/10 12:39:14;;;;;;;24.60;13.40;;;;;;;1.95;59.24;101964.16;5608986;31;35042;-70
2024/01/10 12:42:17;;;;;;;26.48;13.90;;;;;;;1.91;58.40;101968.69;5609875;31;34236;-72
2024/01/10 12:45:24;;;;;;;28.38;13.27;;;;;;;2.02;58.29;101963.81;5608907;31;34370;-71
2024/01/10 12:48:27;;;;;;;31.98;14.18;;;;;;;2.37;59.05;101961.22;5609564;31;35191;-71
2024/01/10 12:51:31;;;;;;;37.90;14.40;;;;;;;2.74;58.05;101963.66;5609415;31;35117;-71
2024/01/10 12:54:35;;;;;;;26.12;13.75;;;;;;;3.10;57.76;101953.00;5608979;31;35509;-71
2024/01/10 12:57:37;;;;;;;31.00;13.98;;;;;;;2.89;56.42;101952.37;5609731;31;35032;-73
2024/01/10 13:00:42;;;;;;;35.88;14.18;;;;;;;2.74;56.90;101945.31;5609516;31;34296;-72
2024/01/10 13:03:45;;;;;;;28.62;13.20;;;;;;;3.11;57.26;101946.00;5609759;31;34372;-72
2024/01/10 13:06:48;;;;;;;24.35;13.07;;;;;;;2.77;57.44;101944.28;5609659;31;34397;-72
2024/01/10 13:09:52;;;;;;;28.05;13.73;;;;;;;2.34;57.47;101946.50;5608991;31;34937;-71
2024/01/10 13:12:56;;;;;;;23.30;13.73;;;;;;;2.18;58.62;101943.78;5609475;31;35708;-71
2024/01/10 13:15:59;;;;;;;26.60;14.10;;;;;;;1.98;58.32;101945.72;5609431;31;34973;-71
2024/01/10 13:19:03;;;;;;;32.15;13.75;;;;;;;1.79;59.24;101945.75;5609574;31;34669;-72
2024/01/10 13:22:06;;;;;;;31.12;13.38;;;;;;;1.78;60.55;101941.44;5609546;31;34362;-72
2024/01/10 13:25:11;;;;;;;27.77;13.55;;;;;;;1.77;61.14;101941.50;5609215;31;34958;-70
2024/01/10 13:28:14;;;;;;;28.25;13.45;;;;;;;1.60;60.78;101943.13;5609335;31;35441;-71
2024/01/10 13:31:17;;;;;;;31.40;14.10;;;;;;;1.56;60.45;101938.13;5609199;31;34365;-71
2024/01/10 13:34:20;;;;;;;23.30;13.30;;;;;;;1.48;61.26;101935.03;5608675;31;34415;-71
2024/01/10 13:37:26;;;;;;;26.87;13.77;;;;;;;1.44;59.92;101936.94;5609043;31;34318;-71
2024/01/10 13:40:29;;;;;;;27.00;14.02;;;;;;;1.39;61.39;101943.31;5609046;31;34334;-72
2024/01/10 13:43:32;;;;;;;23.55;13.25;;;;;;;1.30;61.24;101939.34;5609333;31;34469;-72
2024/01/10 13:46:35;;;;;;;31.62;13.57;;;;;;;1.25;61.08;101933.50;5609237;31;34325;-72
2024/01/10 13:49:38;;;;;;;25.73;13.45;;;;;;;1.21;61.24;101929.31;5609052;31;34446;-70
2024/01/10 13:52:43;;;;;;;25.30;13.13;;;;;;;1.18;61.71;101929.44;5608844;31;35102;-70
2024/01/10 13:55:46;;;;;;;27.65;13.75;;;;;;;1.17;61.91;101925.13;5609199;31;34261;-70
2024/01/10 13:58:49;;;;;;;23.95;13.55;;;;;;;1.10;62.48;101921.13;5608237;31;34341;-70